メインページ
METAR-TAF:

METAR-TAF

空港 :

シルビオ・ペッティロッシ国際空港

アスンシオン, パラグアイ

緯度: 25-16S, 経度: 057-38W, 海抜: 101m

現時点の気象観測

当レポートは32分前の19:00(UTC)に作成
南/南東の風 8kt、からの間で変化する
気温 31°C
湿度 52%
気圧 1008 hPa
視程10km以上
高度3300ftの雲は散在している

METAR: SGAS 091900Z 16008KT 090V190 9999 SCT033 31/20 Q1008

時間: 16:32 (19:32 UTC)

予報

当レポートは3時間17分前の16:15(UTC)に作成
予報は09日の 18時(UTC)から 10日の 18時(UTC)まで有効
の風 7kt
視程10km以上
高度3000ftの千切れ雲あり
09日の 20時(UTC)から 09日の 23時(UTC)まで徐々に
視程10km以上
高度2700ftの雲は散在している
10日の 02時(UTC)から 10日の 05時(UTC)まで徐々に
南/南東の風 5kt
視程10km以上
1,500メートル以下は雲なし、積乱雲なし

TAF: SGAS 091615Z 0918/1018 10007KT 9999 BKN030 TX30/0918Z TN22/1009Z BECMG 0920/0923 9999 SCT027 BECMG 1002/1005 15005KT CAVOK

4,000以上の空港の気象観測と天気予報(METAR報とTAF報)

利用可能な観測所は地図上に黄色い丸と赤い丸で示す。

丸の上にカーソルを重ねると観測所名を参照できる。

次にクリックすると気象観測と天気予報を参照できる。

マップの切り替え:黒色「×」印の緑ボタンをクリックして拡大、「-」印の緑ボタンをクリックして縮小、緑色の三角印をクリックして隣りの地図に切り替え


METAR-TAF: